sensor_id;sensor_type;location;lat;lon;timestamp;P1;durP1;ratioP1;P2;durP2;ratioP2
17997;SDS011;9124;48.144;17.098;2023-08-12T00:02:23;7.00;;;4.68;;
17997;SDS011;9124;48.144;17.098;2023-08-12T00:06:49;4.60;;;4.20;;
17997;SDS011;9124;48.144;17.098;2023-08-12T00:11:15;4.57;;;4.28;;
17997;SDS011;9124;48.144;17.098;2023-08-12T00:15:42;10.23;;;5.05;;
17997;SDS011;9124;48.144;17.098;2023-08-12T00:20:08;4.38;;;4.07;;
17997;SDS011;9124;48.144;17.098;2023-08-12T00:24:36;5.20;;;4.40;;
17997;SDS011;9124;48.144;17.098;2023-08-12T00:29:03;4.80;;;4.32;;
17997;SDS011;9124;48.144;17.098;2023-08-12T00:33:30;5.03;;;4.63;;
17997;SDS011;9124;48.144;17.098;2023-08-12T00:37:56;4.47;;;4.15;;
17997;SDS011;9124;48.144;17.098;2023-08-12T00:42:22;6.18;;;4.25;;
17997;SDS011;9124;48.144;17.098;2023-08-12T00:46:49;5.28;;;4.88;;
17997;SDS011;9124;48.144;17.098;2023-08-12T00:51:16;5.45;;;4.93;;
17997;SDS011;9124;48.144;17.098;2023-08-12T00:55:43;5.38;;;4.60;;
17997;SDS011;9124;48.144;17.098;2023-08-12T01:00:10;8.23;;;6.07;;
17997;SDS011;9124;48.144;17.098;2023-08-12T01:04:36;6.75;;;5.93;;
17997;SDS011;9124;48.144;17.098;2023-08-12T01:09:03;6.38;;;5.88;;
17997;SDS011;9124;48.144;17.098;2023-08-12T01:13:41;6.47;;;6.05;;
17997;SDS011;9124;48.144;17.098;2023-08-12T01:18:18;6.25;;;5.80;;
17997;SDS011;9124;48.144;17.098;2023-08-12T01:22:45;6.10;;;5.68;;
17997;SDS011;9124;48.144;17.098;2023-08-12T01:27:12;6.85;;;5.63;;
17997;SDS011;9124;48.144;17.098;2023-08-12T01:31:41;6.05;;;5.53;;
17997;SDS011;9124;48.144;17.098;2023-08-12T01:36:18;8.63;;;4.95;;
17997;SDS011;9124;48.144;17.098;2023-08-12T01:40:45;5.28;;;4.82;;
17997;SDS011;9124;48.144;17.098;2023-08-12T01:45:13;5.13;;;4.68;;
17997;SDS011;9124;48.144;17.098;2023-08-12T01:49:39;4.95;;;4.65;;
17997;SDS011;9124;48.144;17.098;2023-08-12T01:54:05;5.85;;;4.60;;
17997;SDS011;9124;48.144;17.098;2023-08-12T01:58:33;5.13;;;4.82;;
17997;SDS011;9124;48.144;17.098;2023-08-12T02:02:59;5.32;;;4.93;;
17997;SDS011;9124;48.144;17.098;2023-08-12T02:07:25;4.93;;;4.50;;
17997;SDS011;9124;48.144;17.098;2023-08-12T02:11:51;5.90;;;4.43;;
17997;SDS011;9124;48.144;17.098;2023-08-12T02:16:18;5.57;;;4.53;;
17997;SDS011;9124;48.144;17.098;2023-08-12T02:20:46;4.40;;;4.10;;
17997;SDS011;9124;48.144;17.098;2023-08-12T02:25:14;5.88;;;4.10;;
17997;SDS011;9124;48.144;17.098;2023-08-12T02:29:40;6.25;;;4.32;;
17997;SDS011;9124;48.144;17.098;2023-08-12T02:34:06;4.53;;;4.18;;
17997;SDS011;9124;48.144;17.098;2023-08-12T02:38:33;3.92;;;3.63;;
17997;SDS011;9124;48.144;17.098;2023-08-12T02:42:59;5.45;;;4.55;;
17997;SDS011;9124;48.144;17.098;2023-08-12T02:47:26;8.75;;;4.35;;
17997;SDS011;9124;48.144;17.098;2023-08-12T02:51:53;4.72;;;4.32;;
17997;SDS011;9124;48.144;17.098;2023-08-12T02:56:19;4.68;;;4.25;;
17997;SDS011;9124;48.144;17.098;2023-08-12T03:00:46;5.05;;;4.65;;
17997;SDS011;9124;48.144;17.098;2023-08-12T03:05:12;5.10;;;4.70;;
17997;SDS011;9124;48.144;17.098;2023-08-12T03:09:38;5.53;;;5.00;;
17997;SDS011;9124;48.144;17.098;2023-08-12T03:14:05;4.32;;;4.03;;
17997;SDS011;9124;48.144;17.098;2023-08-12T03:18:31;4.97;;;4.57;;
17997;SDS011;9124;48.144;17.098;2023-08-12T03:22:58;6.45;;;5.32;;
17997;SDS011;9124;48.144;17.098;2023-08-12T03:27:25;5.97;;;5.43;;
17997;SDS011;9124;48.144;17.098;2023-08-12T03:31:52;4.75;;;4.38;;
17997;SDS011;9124;48.144;17.098;2023-08-12T03:36:18;5.30;;;4.90;;
17997;SDS011;9124;48.144;17.098;2023-08-12T03:40:45;5.03;;;4.70;;
17997;SDS011;9124;48.144;17.098;2023-08-12T03:45:14;3.85;;;3.53;;
17997;SDS011;9124;48.144;17.098;2023-08-12T03:49:40;4.50;;;4.10;;
17997;SDS011;9124;48.144;17.098;2023-08-12T03:54:07;3.70;;;3.50;;
17997;SDS011;9124;48.144;17.098;2023-08-12T03:58:34;4.18;;;3.78;;
17997;SDS011;9124;48.144;17.098;2023-08-12T04:03:01;5.82;;;3.67;;
17997;SDS011;9124;48.144;17.098;2023-08-12T04:07:27;4.80;;;3.80;;
17997;SDS011;9124;48.144;17.098;2023-08-12T04:11:53;3.67;;;3.38;;
17997;SDS011;9124;48.144;17.098;2023-08-12T04:16:20;5.22;;;4.05;;
17997;SDS011;9124;48.144;17.098;2023-08-12T04:20:49;4.15;;;3.78;;
17997;SDS011;9124;48.144;17.098;2023-08-12T04:25:17;4.30;;;3.95;;
17997;SDS011;9124;48.144;17.098;2023-08-12T04:29:46;7.22;;;4.53;;
17997;SDS011;9124;48.144;17.098;2023-08-12T04:34:13;5.97;;;4.93;;
17997;SDS011;9124;48.144;17.098;2023-08-12T04:38:39;4.43;;;4.00;;
17997;SDS011;9124;48.144;17.098;2023-08-12T04:43:09;4.78;;;4.47;;
17997;SDS011;9124;48.144;17.098;2023-08-12T04:47:36;6.38;;;4.05;;
17997;SDS011;9124;48.144;17.098;2023-08-12T04:52:02;4.60;;;4.20;;
17997;SDS011;9124;48.144;17.098;2023-08-12T04:56:29;4.43;;;4.10;;
17997;SDS011;9124;48.144;17.098;2023-08-12T05:00:56;5.25;;;4.85;;
17997;SDS011;9124;48.144;17.098;2023-08-12T05:05:25;5.28;;;4.88;;
17997;SDS011;9124;48.144;17.098;2023-08-12T05:09:52;5.00;;;4.70;;
17997;SDS011;9124;48.144;17.098;2023-08-12T05:14:19;6.10;;;5.50;;
17997;SDS011;9124;48.144;17.098;2023-08-12T05:18:46;12.68;;;5.45;;
17997;SDS011;9124;48.144;17.098;2023-08-12T05:23:12;5.85;;;5.28;;
17997;SDS011;9124;48.144;17.098;2023-08-12T05:27:38;5.93;;;5.53;;
17997;SDS011;9124;48.144;17.098;2023-08-12T05:32:05;6.50;;;5.47;;
17997;SDS011;9124;48.144;17.098;2023-08-12T05:36:31;12.50;;;5.00;;
17997;SDS011;9124;48.144;17.098;2023-08-12T05:40:57;5.88;;;5.47;;
17997;SDS011;9124;48.144;17.098;2023-08-12T05:45:24;5.53;;;5.13;;
17997;SDS011;9124;48.144;17.098;2023-08-12T05:49:50;5.28;;;4.80;;
17997;SDS011;9124;48.144;17.098;2023-08-12T05:54:16;4.72;;;4.43;;
17997;SDS011;9124;48.144;17.098;2023-08-12T05:58:43;4.78;;;4.47;;
17997;SDS011;9124;48.144;17.098;2023-08-12T06:03:09;7.25;;;4.95;;
17997;SDS011;9124;48.144;17.098;2023-08-12T06:07:35;9.10;;;5.05;;
17997;SDS011;9124;48.144;17.098;2023-08-12T06:12:02;5.45;;;4.93;;
17997;SDS011;9124;48.144;17.098;2023-08-12T06:16:28;5.28;;;4.80;;
17997;SDS011;9124;48.144;17.098;2023-08-12T06:20:55;5.95;;;4.80;;
17997;SDS011;9124;48.144;17.098;2023-08-12T06:25:21;7.28;;;4.40;;
17997;SDS011;9124;48.144;17.098;2023-08-12T06:29:47;10.05;;;4.85;;
17997;SDS011;9124;48.144;17.098;2023-08-12T06:34:13;4.85;;;4.40;;
17997;SDS011;9124;48.144;17.098;2023-08-12T06:38:40;4.75;;;4.28;;
17997;SDS011;9124;48.144;17.098;2023-08-12T06:43:06;4.30;;;4.00;;
17997;SDS011;9124;48.144;17.098;2023-08-12T06:47:34;4.60;;;4.20;;
17997;SDS011;9124;48.144;17.098;2023-08-12T06:52:00;4.70;;;3.88;;
17997;SDS011;9124;48.144;17.098;2023-08-12T06:56:27;4.72;;;4.43;;
17997;SDS011;9124;48.144;17.098;2023-08-12T07:00:53;4.43;;;4.03;;
17997;SDS011;9124;48.144;17.098;2023-08-12T07:05:19;4.40;;;4.10;;
17997;SDS011;9124;48.144;17.098;2023-08-12T07:09:45;4.57;;;3.97;;
17997;SDS011;9124;48.144;17.098;2023-08-12T07:14:12;6.05;;;3.38;;
17997;SDS011;9124;48.144;17.098;2023-08-12T07:18:41;3.40;;;3.20;;
17997;SDS011;9124;48.144;17.098;2023-08-12T07:23:08;3.92;;;3.28;;
17997;SDS011;9124;48.144;17.098;2023-08-12T07:27:34;3.40;;;3.10;;
17997;SDS011;9124;48.144;17.098;2023-08-12T07:32:00;5.25;;;3.22;;
17997;SDS011;9124;48.144;17.098;2023-08-12T07:36:26;3.28;;;3.00;;
17997;SDS011;9124;48.144;17.098;2023-08-12T07:40:53;3.28;;;2.92;;
17997;SDS011;9124;48.144;17.098;2023-08-12T07:45:21;3.08;;;2.88;;
17997;SDS011;9124;48.144;17.098;2023-08-12T07:49:47;10.32;;;3.30;;
17997;SDS011;9124;48.144;17.098;2023-08-12T07:54:13;7.57;;;3.30;;
17997;SDS011;9124;48.144;17.098;2023-08-12T07:58:40;3.17;;;2.92;;
17997;SDS011;9124;48.144;17.098;2023-08-12T08:03:06;3.25;;;2.92;;
17997;SDS011;9124;48.144;17.098;2023-08-12T08:07:33;3.70;;;3.50;;
17997;SDS011;9124;48.144;17.098;2023-08-12T08:11:59;4.25;;;3.28;;
17997;SDS011;9124;48.144;17.098;2023-08-12T08:16:26;3.40;;;3.20;;
17997;SDS011;9124;48.144;17.098;2023-08-12T08:20:52;3.40;;;3.10;;
17997;SDS011;9124;48.144;17.098;2023-08-12T08:25:19;4.55;;;3.10;;
17997;SDS011;9124;48.144;17.098;2023-08-12T08:29:45;3.50;;;3.15;;
17997;SDS011;9124;48.144;17.098;2023-08-12T08:34:12;3.00;;;2.80;;
17997;SDS011;9124;48.144;17.098;2023-08-12T08:38:38;4.50;;;3.60;;
17997;SDS011;9124;48.144;17.098;2023-08-12T08:43:04;3.63;;;2.92;;
17997;SDS011;9124;48.144;17.098;2023-08-12T08:47:34;4.88;;;3.00;;
17997;SDS011;9124;48.144;17.098;2023-08-12T08:52:00;3.30;;;3.00;;
17997;SDS011;9124;48.144;17.098;2023-08-12T08:56:27;8.35;;;3.13;;
17997;SDS011;9124;48.144;17.098;2023-08-12T09:00:54;3.20;;;2.80;;
17997;SDS011;9124;48.144;17.098;2023-08-12T09:05:20;3.42;;;3.10;;
17997;SDS011;9124;48.144;17.098;2023-08-12T09:09:50;3.17;;;2.90;;
17997;SDS011;9124;48.144;17.098;2023-08-12T09:14:20;3.33;;;3.10;;
17997;SDS011;9124;48.144;17.098;2023-08-12T09:18:46;3.45;;;3.20;;
17997;SDS011;9124;48.144;17.098;2023-08-12T09:23:13;5.57;;;3.65;;
17997;SDS011;9124;48.144;17.098;2023-08-12T09:27:39;7.47;;;3.17;;
17997;SDS011;9124;48.144;17.098;2023-08-12T09:32:08;3.42;;;3.08;;
17997;SDS011;9124;48.144;17.098;2023-08-12T09:36:39;3.00;;;2.90;;
17997;SDS011;9124;48.144;17.098;2023-08-12T09:41:07;4.32;;;3.00;;
17997;SDS011;9124;48.144;17.098;2023-08-12T09:45:33;3.03;;;2.83;;
17997;SDS011;9124;48.144;17.098;2023-08-12T09:50:00;3.20;;;3.00;;
17997;SDS011;9124;48.144;17.098;2023-08-12T09:54:28;5.05;;;2.90;;
17997;SDS011;9124;48.144;17.098;2023-08-12T09:58:57;2.80;;;2.70;;
17997;SDS011;9124;48.144;17.098;2023-08-12T10:03:25;2.67;;;2.58;;
17997;SDS011;9124;48.144;17.098;2023-08-12T10:07:52;3.38;;;2.60;;
17997;SDS011;9124;48.144;17.098;2023-08-12T10:12:20;4.03;;;2.85;;
17997;SDS011;9124;48.144;17.098;2023-08-12T10:16:48;2.38;;;2.17;;
17997;SDS011;9124;48.144;17.098;2023-08-12T10:21:15;2.05;;;1.95;;
17997;SDS011;9124;48.144;17.098;2023-08-12T10:25:43;2.55;;;2.35;;
17997;SDS011;9124;48.144;17.098;2023-08-12T10:30:12;3.67;;;2.30;;
17997;SDS011;9124;48.144;17.098;2023-08-12T10:34:39;2.15;;;2.05;;
17997;SDS011;9124;48.144;17.098;2023-08-12T10:39:08;2.17;;;2.08;;
17997;SDS011;9124;48.144;17.098;2023-08-12T10:43:48;2.70;;;2.50;;
17997;SDS011;9124;48.144;17.098;2023-08-12T10:48:22;3.08;;;2.88;;
17997;SDS011;9124;48.144;17.098;2023-08-12T10:52:54;2.78;;;2.55;;
17997;SDS011;9124;48.144;17.098;2023-08-12T10:57:42;2.58;;;2.47;;
17997;SDS011;9124;48.144;17.098;2023-08-12T11:02:07;2.50;;;2.30;;
17997;SDS011;9124;48.144;17.098;2023-08-12T11:06:45;2.35;;;2.25;;
17997;SDS011;9124;48.144;17.098;2023-08-12T11:11:24;2.92;;;2.22;;
17997;SDS011;9124;48.144;17.098;2023-08-12T11:15:51;1.92;;;1.83;;
17997;SDS011;9124;48.144;17.098;2023-08-12T11:20:17;2.22;;;2.10;;
17997;SDS011;9124;48.144;17.098;2023-08-12T11:24:44;2.22;;;2.13;;
17997;SDS011;9124;48.144;17.098;2023-08-12T11:29:11;2.40;;;1.60;;
17997;SDS011;9124;48.144;17.098;2023-08-12T11:33:38;2.47;;;2.28;;
17997;SDS011;9124;48.144;17.098;2023-08-12T11:38:05;2.60;;;1.80;;
17997;SDS011;9124;48.144;17.098;2023-08-12T11:42:32;3.88;;;2.15;;
17997;SDS011;9124;48.144;17.098;2023-08-12T11:46:59;1.60;;;1.50;;
17997;SDS011;9124;48.144;17.098;2023-08-12T11:51:25;5.78;;;2.10;;
17997;SDS011;9124;48.144;17.098;2023-08-12T11:55:55;2.13;;;1.83;;
17997;SDS011;9124;48.144;17.098;2023-08-12T12:00:21;1.92;;;1.77;;
17997;SDS011;9124;48.144;17.098;2023-08-12T12:04:51;2.15;;;2.00;;
17997;SDS011;9124;48.144;17.098;2023-08-12T12:09:18;1.95;;;1.80;;
17997;SDS011;9124;48.144;17.098;2023-08-12T12:13:46;1.85;;;1.75;;
17997;SDS011;9124;48.144;17.098;2023-08-12T12:18:13;1.88;;;1.77;;
17997;SDS011;9124;48.144;17.098;2023-08-12T12:22:41;1.70;;;1.60;;
17997;SDS011;9124;48.144;17.098;2023-08-12T12:27:13;1.90;;;1.80;;
17997;SDS011;9124;48.144;17.098;2023-08-12T12:31:40;1.88;;;1.70;;
17997;SDS011;9124;48.144;17.098;2023-08-12T12:36:07;4.30;;;1.80;;
17997;SDS011;9124;48.144;17.098;2023-08-12T12:40:34;3.10;;;1.80;;
17997;SDS011;9124;48.144;17.098;2023-08-12T12:45:00;5.75;;;1.70;;
17997;SDS011;9124;48.144;17.098;2023-08-12T12:49:27;2.13;;;1.92;;
17997;SDS011;9124;48.144;17.098;2023-08-12T12:53:54;1.50;;;1.40;;
17997;SDS011;9124;48.144;17.098;2023-08-12T12:58:20;2.53;;;1.75;;
17997;SDS011;9124;48.144;17.098;2023-08-12T13:02:49;1.45;;;1.35;;
17997;SDS011;9124;48.144;17.098;2023-08-12T13:07:15;1.90;;;1.80;;
17997;SDS011;9124;48.144;17.098;2023-08-12T13:11:41;1.67;;;1.58;;
17997;SDS011;9124;48.144;17.098;2023-08-12T13:16:08;2.50;;;1.63;;
17997;SDS011;9124;48.144;17.098;2023-08-12T13:20:34;5.28;;;1.92;;
17997;SDS011;9124;48.144;17.098;2023-08-12T13:25:01;3.47;;;1.95;;
17997;SDS011;9124;48.144;17.098;2023-08-12T13:29:28;1.98;;;1.75;;
17997;SDS011;9124;48.144;17.098;2023-08-12T13:33:56;1.83;;;1.73;;
17997;SDS011;9124;48.144;17.098;2023-08-12T13:38:23;2.35;;;2.03;;
17997;SDS011;9124;48.144;17.098;2023-08-12T13:42:49;2.00;;;1.88;;
17997;SDS011;9124;48.144;17.098;2023-08-12T13:47:16;7.03;;;1.80;;
17997;SDS011;9124;48.144;17.098;2023-08-12T13:51:42;1.98;;;1.88;;
17997;SDS011;9124;48.144;17.098;2023-08-12T13:56:08;7.20;;;1.60;;
17997;SDS011;9124;48.144;17.098;2023-08-12T14:00:35;9.23;;;1.88;;
17997;SDS011;9124;48.144;17.098;2023-08-12T14:05:02;3.10;;;1.73;;
17997;SDS011;9124;48.144;17.098;2023-08-12T14:09:30;3.03;;;1.85;;
17997;SDS011;9124;48.144;17.098;2023-08-12T14:13:56;1.70;;;1.60;;
17997;SDS011;9124;48.144;17.098;2023-08-12T14:18:23;3.88;;;1.95;;
17997;SDS011;9124;48.144;17.098;2023-08-12T14:22:50;5.45;;;1.88;;
17997;SDS011;9124;48.144;17.098;2023-08-12T14:27:16;2.25;;;2.05;;
17997;SDS011;9124;48.144;17.098;2023-08-12T14:31:43;2.17;;;2.08;;
17997;SDS011;9124;48.144;17.098;2023-08-12T14:36:10;4.95;;;1.88;;
17997;SDS011;9124;48.144;17.098;2023-08-12T14:40:36;4.97;;;2.20;;
17997;SDS011;9124;48.144;17.098;2023-08-12T14:45:03;4.90;;;2.42;;
17997;SDS011;9124;48.144;17.098;2023-08-12T14:49:29;2.15;;;1.95;;
17997;SDS011;9124;48.144;17.098;2023-08-12T14:53:56;2.78;;;2.05;;
17997;SDS011;9124;48.144;17.098;2023-08-12T14:58:23;1.92;;;1.83;;
17997;SDS011;9124;48.144;17.098;2023-08-12T15:02:49;3.13;;;2.30;;
17997;SDS011;9124;48.144;17.098;2023-08-12T15:07:15;2.22;;;2.03;;
17997;SDS011;9124;48.144;17.098;2023-08-12T15:11:43;3.50;;;1.63;;
17997;SDS011;9124;48.144;17.098;2023-08-12T15:16:10;4.40;;;2.28;;
17997;SDS011;9124;48.144;17.098;2023-08-12T15:20:36;2.35;;;2.22;;
17997;SDS011;9124;48.144;17.098;2023-08-12T15:25:03;2.00;;;1.90;;
17997;SDS011;9124;48.144;17.098;2023-08-12T15:29:30;3.28;;;2.22;;
17997;SDS011;9124;48.144;17.098;2023-08-12T15:33:56;2.13;;;2.03;;
17997;SDS011;9124;48.144;17.098;2023-08-12T15:38:22;4.75;;;1.77;;
17997;SDS011;9124;48.144;17.098;2023-08-12T15:42:49;3.13;;;2.03;;
17997;SDS011;9124;48.144;17.098;2023-08-12T15:47:16;2.05;;;1.95;;
17997;SDS011;9124;48.144;17.098;2023-08-12T15:51:42;2.33;;;2.03;;
17997;SDS011;9124;48.144;17.098;2023-08-12T15:56:09;2.05;;;1.95;;
17997;SDS011;9124;48.144;17.098;2023-08-12T16:00:35;3.83;;;2.00;;
17997;SDS011;9124;48.144;17.098;2023-08-12T16:05:02;2.50;;;2.22;;
17997;SDS011;9124;48.144;17.098;2023-08-12T16:09:30;2.33;;;1.92;;
17997;SDS011;9124;48.144;17.098;2023-08-12T16:13:57;1.73;;;1.63;;
17997;SDS011;9124;48.144;17.098;2023-08-12T16:18:23;6.78;;;1.58;;
17997;SDS011;9124;48.144;17.098;2023-08-12T16:22:50;2.25;;;2.05;;
17997;SDS011;9124;48.144;17.098;2023-08-12T16:27:17;2.05;;;1.95;;
17997;SDS011;9124;48.144;17.098;2023-08-12T16:31:43;1.80;;;1.70;;
17997;SDS011;9124;48.144;17.098;2023-08-12T16:36:09;1.90;;;1.80;;
17997;SDS011;9124;48.144;17.098;2023-08-12T16:40:36;2.15;;;2.05;;
17997;SDS011;9124;48.144;17.098;2023-08-12T16:45:03;2.97;;;2.13;;
17997;SDS011;9124;48.144;17.098;2023-08-12T16:49:30;2.17;;;2.05;;
17997;SDS011;9124;48.144;17.098;2023-08-12T16:53:56;2.60;;;2.28;;
17997;SDS011;9124;48.144;17.098;2023-08-12T16:58:23;5.40;;;2.40;;
17997;SDS011;9124;48.144;17.098;2023-08-12T17:02:49;2.05;;;1.95;;
17997;SDS011;9124;48.144;17.098;2023-08-12T17:07:16;2.78;;;2.50;;
17997;SDS011;9124;48.144;17.098;2023-08-12T17:11:42;3.92;;;2.17;;
17997;SDS011;9124;48.144;17.098;2023-08-12T17:16:08;3.15;;;2.45;;
17997;SDS011;9124;48.144;17.098;2023-08-12T17:20:35;3.38;;;2.10;;
17997;SDS011;9124;48.144;17.098;2023-08-12T17:25:02;2.72;;;2.47;;
17997;SDS011;9124;48.144;17.098;2023-08-12T17:29:31;3.47;;;2.08;;
17997;SDS011;9124;48.144;17.098;2023-08-12T17:33:58;3.85;;;2.47;;
17997;SDS011;9124;48.144;17.098;2023-08-12T17:38:24;3.15;;;2.65;;
17997;SDS011;9124;48.144;17.098;2023-08-12T17:42:50;2.47;;;2.30;;
17997;SDS011;9124;48.144;17.098;2023-08-12T17:47:16;3.10;;;2.35;;
17997;SDS011;9124;48.144;17.098;2023-08-12T17:51:43;2.70;;;2.50;;
17997;SDS011;9124;48.144;17.098;2023-08-12T17:56:09;2.95;;;2.17;;
17997;SDS011;9124;48.144;17.098;2023-08-12T18:00:36;3.67;;;2.60;;
17997;SDS011;9124;48.144;17.098;2023-08-12T18:05:03;2.75;;;2.55;;
17997;SDS011;9124;48.144;17.098;2023-08-12T18:09:30;3.13;;;2.75;;
17997;SDS011;9124;48.144;17.098;2023-08-12T18:13:56;2.53;;;2.40;;
17997;SDS011;9124;48.144;17.098;2023-08-12T18:18:22;3.03;;;2.40;;
17997;SDS011;9124;48.144;17.098;2023-08-12T18:22:49;3.03;;;2.70;;
17997;SDS011;9124;48.144;17.098;2023-08-12T18:27:15;2.67;;;2.47;;
17997;SDS011;9124;48.144;17.098;2023-08-12T18:31:41;2.42;;;2.10;;
17997;SDS011;9124;48.144;17.098;2023-08-12T18:36:08;4.28;;;2.75;;
17997;SDS011;9124;48.144;17.098;2023-08-12T18:40:34;2.78;;;2.60;;
17997;SDS011;9124;48.144;17.098;2023-08-12T18:45:01;3.42;;;2.92;;
17997;SDS011;9124;48.144;17.098;2023-08-12T18:49:28;2.80;;;2.70;;
17997;SDS011;9124;48.144;17.098;2023-08-12T18:53:54;3.17;;;2.97;;
17997;SDS011;9124;48.144;17.098;2023-08-12T18:58:20;2.40;;;2.20;;
17997;SDS011;9124;48.144;17.098;2023-08-12T19:02:47;3.40;;;3.10;;
17997;SDS011;9124;48.144;17.098;2023-08-12T19:07:13;2.88;;;2.40;;
17997;SDS011;9124;48.144;17.098;2023-08-12T19:11:40;3.28;;;2.78;;
17997;SDS011;9124;48.144;17.098;2023-08-12T19:16:06;4.82;;;2.40;;
17997;SDS011;9124;48.144;17.098;2023-08-12T19:20:35;3.05;;;2.72;;
17997;SDS011;9124;48.144;17.098;2023-08-12T19:25:02;3.20;;;2.67;;
17997;SDS011;9124;48.144;17.098;2023-08-12T19:29:28;4.22;;;2.83;;
17997;SDS011;9124;48.144;17.098;2023-08-12T19:33:55;3.10;;;2.80;;
17997;SDS011;9124;48.144;17.098;2023-08-12T19:38:21;5.78;;;2.80;;
17997;SDS011;9124;48.144;17.098;2023-08-12T19:42:48;3.13;;;2.92;;
17997;SDS011;9124;48.144;17.098;2023-08-12T19:47:14;3.38;;;2.60;;
17997;SDS011;9124;48.144;17.098;2023-08-12T19:51:41;4.63;;;3.05;;
17997;SDS011;9124;48.144;17.098;2023-08-12T19:56:07;5.30;;;3.05;;
17997;SDS011;9124;48.144;17.098;2023-08-12T20:00:33;3.58;;;3.33;;
17997;SDS011;9124;48.144;17.098;2023-08-12T20:05:00;4.50;;;2.72;;
17997;SDS011;9124;48.144;17.098;2023-08-12T20:09:26;3.85;;;2.60;;
17997;SDS011;9124;48.144;17.098;2023-08-12T20:13:52;2.90;;;2.80;;
17997;SDS011;9124;48.144;17.098;2023-08-12T20:18:19;2.80;;;2.60;;
17997;SDS011;9124;48.144;17.098;2023-08-12T20:22:45;2.88;;;2.70;;
17997;SDS011;9124;48.144;17.098;2023-08-12T20:27:13;2.80;;;2.60;;
17997;SDS011;9124;48.144;17.098;2023-08-12T20:31:39;3.55;;;2.58;;
17997;SDS011;9124;48.144;17.098;2023-08-12T20:36:06;2.90;;;2.47;;
17997;SDS011;9124;48.144;17.098;2023-08-12T20:40:32;3.40;;;3.10;;
17997;SDS011;9124;48.144;17.098;2023-08-12T20:44:59;2.88;;;2.70;;
17997;SDS011;9124;48.144;17.098;2023-08-12T20:49:25;3.15;;;3.00;;
17997;SDS011;9124;48.144;17.098;2023-08-12T20:53:52;4.40;;;3.58;;
17997;SDS011;9124;48.144;17.098;2023-08-12T20:58:19;3.58;;;3.28;;
17997;SDS011;9124;48.144;17.098;2023-08-12T21:02:46;3.60;;;3.30;;
17997;SDS011;9124;48.144;17.098;2023-08-12T21:07:13;4.85;;;3.20;;
17997;SDS011;9124;48.144;17.098;2023-08-12T21:11:39;3.47;;;3.28;;
17997;SDS011;9124;48.144;17.098;2023-08-12T21:16:06;3.83;;;3.15;;
17997;SDS011;9124;48.144;17.098;2023-08-12T21:20:32;3.55;;;2.85;;
17997;SDS011;9124;48.144;17.098;2023-08-12T21:24:58;3.58;;;3.28;;
17997;SDS011;9124;48.144;17.098;2023-08-12T21:29:25;3.28;;;3.03;;
17997;SDS011;9124;48.144;17.098;2023-08-12T21:33:51;4.45;;;3.15;;
17997;SDS011;9124;48.144;17.098;2023-08-12T21:38:17;8.52;;;3.08;;
17997;SDS011;9124;48.144;17.098;2023-08-12T21:42:44;3.33;;;3.13;;
17997;SDS011;9124;48.144;17.098;2023-08-12T21:47:10;3.63;;;3.28;;
17997;SDS011;9124;48.144;17.098;2023-08-12T21:51:37;5.82;;;3.13;;
17997;SDS011;9124;48.144;17.098;2023-08-12T21:56:03;3.63;;;3.13;;
17997;SDS011;9124;48.144;17.098;2023-08-12T22:00:30;3.58;;;3.35;;
17997;SDS011;9124;48.144;17.098;2023-08-12T22:04:59;7.45;;;3.00;;
17997;SDS011;9124;48.144;17.098;2023-08-12T22:09:26;3.40;;;3.20;;
17997;SDS011;9124;48.144;17.098;2023-08-12T22:13:54;3.20;;;2.90;;
17997;SDS011;9124;48.144;17.098;2023-08-12T22:18:21;9.02;;;2.72;;
17997;SDS011;9124;48.144;17.098;2023-08-12T22:22:47;3.40;;;3.20;;
17997;SDS011;9124;48.144;17.098;2023-08-12T22:27:14;3.20;;;3.00;;
17997;SDS011;9124;48.144;17.098;2023-08-12T22:31:40;5.45;;;3.50;;
17997;SDS011;9124;48.144;17.098;2023-08-12T22:36:07;4.78;;;3.00;;
17997;SDS011;9124;48.144;17.098;2023-08-12T22:40:34;3.10;;;2.90;;
17997;SDS011;9124;48.144;17.098;2023-08-12T22:45:01;3.15;;;3.00;;
17997;SDS011;9124;48.144;17.098;2023-08-12T22:49:28;6.40;;;3.20;;
17997;SDS011;9124;48.144;17.098;2023-08-12T22:53:54;5.63;;;3.38;;
17997;SDS011;9124;48.144;17.098;2023-08-12T22:58:23;3.78;;;2.92;;
17997;SDS011;9124;48.144;17.098;2023-08-12T23:02:49;4.20;;;3.22;;
17997;SDS011;9124;48.144;17.098;2023-08-12T23:07:16;4.70;;;3.17;;
17997;SDS011;9124;48.144;17.098;2023-08-12T23:11:42;4.10;;;3.40;;
17997;SDS011;9124;48.144;17.098;2023-08-12T23:16:08;3.78;;;3.47;;
17997;SDS011;9124;48.144;17.098;2023-08-12T23:20:34;4.03;;;3.47;;
17997;SDS011;9124;48.144;17.098;2023-08-12T23:25:01;4.00;;;3.50;;
17997;SDS011;9124;48.144;17.098;2023-08-12T23:29:28;5.00;;;3.53;;
17997;SDS011;9124;48.144;17.098;2023-08-12T23:33:54;3.60;;;3.30;;
17997;SDS011;9124;48.144;17.098;2023-08-12T23:38:21;4.40;;;4.00;;
17997;SDS011;9124;48.144;17.098;2023-08-12T23:42:47;4.95;;;3.88;;
17997;SDS011;9124;48.144;17.098;2023-08-12T23:47:13;3.80;;;3.60;;
17997;SDS011;9124;48.144;17.098;2023-08-12T23:51:40;3.65;;;3.40;;
17997;SDS011;9124;48.144;17.098;2023-08-12T23:56:06;4.25;;;3.95;;
